createdAt,value
2019-03-23T00:00:10.471Z,39.08
2019-03-23T00:02:39.339Z,47.98
2019-03-23T00:05:09.469Z,57.38
2019-03-23T00:07:39.105Z,54.63
2019-03-23T00:10:08.456Z,50.78
2019-03-23T00:12:37.296Z,52.17
2019-03-23T00:15:08.996Z,51.00
2019-03-23T00:17:37.881Z,48.63
2019-03-23T00:20:07.329Z,63.35
2019-03-23T00:22:36.747Z,55.38
2019-03-23T00:25:06.270Z,58.68
2019-03-23T00:27:35.176Z,55.63
2019-03-23T00:30:06.654Z,53.33
2019-03-23T00:32:36.210Z,51.07
2019-03-23T00:35:06.957Z,42.75
2019-03-23T00:37:35.840Z,44.38
2019-03-23T00:40:09.609Z,43.98
2019-03-23T00:42:38.471Z,42.67
2019-03-23T00:45:09.956Z,48.98
2019-03-23T00:47:40.217Z,48.50
2019-03-23T00:50:09.880Z,52.67
2019-03-23T00:52:38.765Z,42.80
2019-03-23T00:55:08.836Z,48.13
2019-03-23T00:57:37.694Z,47.45
2019-03-23T01:00:11.604Z,46.23
2019-03-23T01:02:41.839Z,43.28
2019-03-23T01:05:11.915Z,42.58
2019-03-23T01:07:41.195Z,53.50
2019-03-23T01:10:13.674Z,50.38
2019-03-23T01:12:43.136Z,58.05
2019-03-23T01:15:13.863Z,46.65
2019-03-23T01:17:42.752Z,46.83
2019-03-23T01:20:13.615Z,50.35
2019-03-23T01:22:42.477Z,44.00
2019-03-23T01:25:11.633Z,35.30
2019-03-23T01:27:42.056Z,35.98
2019-03-23T01:30:13.544Z,39.25
2019-03-23T01:32:43.018Z,38.83
2019-03-23T01:35:12.460Z,40.50
2019-03-23T01:37:43.693Z,39.50
2019-03-23T01:40:12.845Z,34.92
2019-03-23T01:42:41.754Z,34.27
2019-03-23T01:45:12.317Z,28.07
2019-03-23T01:47:41.173Z,27.60
2019-03-23T01:50:11.557Z,33.35
2019-03-23T01:52:40.424Z,29.07
2019-03-23T01:55:09.612Z,30.32
2019-03-23T01:57:38.489Z,25.27
2019-03-23T02:00:10.040Z,25.05
2019-03-23T02:02:39.595Z,27.13
2019-03-23T02:05:08.853Z,23.25
2019-03-23T02:07:37.745Z,23.07
2019-03-23T02:10:07.906Z,23.18
2019-03-23T02:12:36.761Z,21.45
2019-03-23T02:15:07.784Z,21.10
2019-03-23T02:17:36.641Z,26.48
2019-03-23T02:20:10.941Z,20.62
2019-03-23T02:22:39.984Z,26.40
2019-03-23T02:25:08.928Z,23.15
2019-03-23T02:27:39.360Z,23.12
2019-03-23T02:30:14.491Z,21.50
2019-03-23T02:32:43.390Z,24.32
2019-03-23T02:35:13.376Z,20.40
2019-03-23T02:37:42.234Z,19.98
2019-03-23T02:40:11.898Z,18.80
2019-03-23T02:42:40.766Z,21.62
2019-03-23T02:45:11.499Z,16.80
2019-03-23T02:47:40.396Z,18.05
2019-03-23T02:50:10.470Z,21.68
2019-03-23T02:52:39.364Z,15.43
2019-03-23T02:55:11.998Z,14.73
2019-03-23T02:57:40.872Z,18.42
2019-03-23T03:00:14.827Z,18.52
2019-03-23T03:02:43.678Z,19.25
2019-03-23T03:05:12.860Z,20.05
2019-03-23T03:07:43.615Z,15.30
2019-03-23T03:10:14.495Z,12.93
2019-03-23T03:12:43.344Z,18.32
2019-03-23T03:15:12.309Z,17.52
2019-03-23T03:17:41.205Z,16.90
2019-03-23T03:20:10.872Z,17.50
2019-03-23T03:22:39.745Z,16.93
2019-03-23T03:25:09.404Z,18.90
2019-03-23T03:27:39.322Z,14.03
2019-03-23T03:30:10.801Z,12.63
2019-03-23T03:32:39.640Z,17.40
2019-03-23T03:35:09.078Z,16.82
2019-03-23T03:37:37.948Z,13.60
2019-03-23T03:40:10.076Z,15.98
2019-03-23T03:42:40.216Z,16.62
2019-03-23T03:45:11.288Z,13.35
2019-03-23T03:47:41.374Z,11.20
2019-03-23T03:50:12.712Z,17.85
2019-03-23T03:52:41.564Z,11.90
2019-03-23T03:55:11.838Z,17.00
2019-03-23T03:57:40.691Z,14.20
2019-03-23T04:00:10.351Z,16.57
2019-03-23T04:02:39.219Z,16.25
2019-03-23T04:05:08.388Z,13.85
2019-03-23T04:07:37.656Z,14.80
2019-03-23T04:10:08.109Z,18.32
2019-03-23T04:12:37.844Z,13.68
2019-03-23T04:15:09.595Z,10.53
2019-03-23T04:17:38.449Z,14.18
2019-03-23T04:20:09.030Z,14.43
2019-03-23T04:22:37.887Z,12.70
2019-03-23T04:25:08.043Z,13.70
2019-03-23T04:27:36.911Z,11.53
2019-03-23T04:30:08.683Z,14.15
2019-03-23T04:32:37.561Z,11.20
2019-03-23T04:35:07.623Z,13.72
2019-03-23T04:37:36.466Z,12.58
2019-03-23T04:40:08.727Z,14.47
2019-03-23T04:42:37.569Z,13.62
2019-03-23T04:45:08.221Z,13.22
2019-03-23T04:47:37.070Z,12.15
2019-03-23T04:50:11.244Z,15.32
2019-03-23T04:52:40.122Z,12.70
2019-03-23T04:55:13.923Z,12.60
2019-03-23T04:57:42.792Z,11.95
2019-03-23T05:00:14.585Z,18.70
2019-03-23T05:02:43.432Z,17.82
2019-03-23T05:05:12.825Z,16.75
2019-03-23T05:07:41.688Z,16.15
2019-03-23T05:10:12.210Z,15.15
2019-03-23T05:12:41.055Z,16.37
2019-03-23T05:15:10.897Z,17.82
2019-03-23T05:17:39.740Z,18.02
2019-03-23T05:20:10.691Z,18.95
2019-03-23T05:22:39.565Z,16.93
2019-03-23T05:25:11.371Z,15.90
2019-03-23T05:27:40.216Z,15.48
2019-03-23T05:30:09.279Z,16.05
2019-03-23T05:32:38.133Z,18.45
2019-03-23T05:35:09.297Z,12.53
2019-03-23T05:37:38.164Z,16.65
2019-03-23T05:40:07.715Z,15.88
2019-03-23T05:42:36.564Z,15.98
2019-03-23T05:45:06.822Z,16.93
2019-03-23T05:47:35.740Z,15.63
2019-03-23T05:50:08.241Z,12.40
2019-03-23T05:55:06.363Z,15.85
2019-03-23T05:57:37.286Z,16.00
2019-03-23T06:00:14.989Z,15.85
2019-03-23T06:02:43.936Z,13.80
2019-03-23T06:05:13.496Z,14.45
2019-03-23T06:07:42.369Z,13.78
2019-03-23T06:10:11.312Z,11.80
2019-03-23T06:12:40.240Z,14.60
2019-03-23T06:15:10.167Z,12.73
2019-03-23T06:17:39.520Z,11.22
2019-03-23T06:20:09.990Z,10.93
2019-03-23T06:22:39.200Z,9.30
2019-03-23T06:25:08.184Z,10.18
2019-03-23T06:27:37.047Z,17.52
2019-03-23T06:30:08.610Z,9.10
2019-03-23T06:32:37.465Z,10.53
2019-03-23T06:35:07.341Z,14.18
2019-03-23T06:37:36.880Z,15.93
2019-03-23T06:40:08.312Z,11.12
2019-03-23T06:42:37.577Z,15.35
2019-03-23T06:45:13.917Z,10.18
2019-03-23T06:47:44.086Z,12.88
2019-03-23T06:50:13.469Z,15.68
2019-03-23T06:52:42.327Z,8.33
2019-03-23T06:55:12.392Z,13.55
2019-03-23T06:57:41.288Z,11.22
2019-03-23T07:00:13.193Z,7.90
2019-03-23T07:02:42.069Z,9.00
2019-03-23T07:05:11.256Z,7.25
2019-03-23T07:07:42.797Z,10.30
2019-03-23T07:10:15.015Z,10.93
2019-03-23T07:12:43.908Z,9.38
2019-03-23T07:15:19.891Z,10.43
2019-03-23T07:17:44.738Z,9.80
2019-03-23T07:20:17.645Z,12.68
2019-03-23T07:22:47.479Z,10.28
2019-03-23T07:25:16.335Z,17.85
2019-03-23T07:27:45.176Z,12.05
2019-03-23T07:30:15.752Z,14.07
2019-03-23T07:32:44.613Z,13.40
2019-03-23T07:35:13.993Z,9.03
2019-03-23T07:37:42.961Z,11.25
2019-03-23T07:40:15.977Z,6.08
2019-03-23T07:42:47.332Z,7.20
2019-03-23T07:45:17.020Z,16.87
2019-03-23T07:47:45.864Z,9.20
2019-03-23T07:50:22.060Z,8.98
2019-03-23T07:52:51.514Z,14.33
2019-03-23T07:55:20.599Z,7.53
2019-03-23T07:57:50.415Z,11.40
2019-03-23T08:00:22.702Z,8.23
2019-03-23T08:02:51.557Z,8.40
2019-03-23T08:05:20.425Z,14.55
2019-03-23T08:07:50.769Z,9.08
2019-03-23T08:10:28.039Z,9.80
2019-03-23T08:12:57.947Z,5.22
2019-03-23T08:15:26.808Z,8.68
2019-03-23T08:17:57.641Z,7.55
2019-03-23T08:20:29.307Z,7.40
2019-03-23T08:22:58.171Z,8.10
2019-03-23T08:25:27.025Z,8.80
2019-03-23T08:27:55.925Z,11.12
2019-03-23T08:30:26.208Z,9.28
2019-03-23T08:33:02.688Z,16.00
2019-03-23T08:35:31.638Z,8.95
2019-03-23T08:38:00.500Z,11.00
2019-03-23T08:40:29.376Z,8.63
2019-03-23T08:42:58.194Z,9.05
2019-03-23T08:45:27.030Z,11.48
2019-03-23T08:47:55.910Z,10.38
2019-03-23T08:50:24.755Z,14.75
2019-03-23T08:52:53.788Z,9.90
2019-03-23T08:55:22.722Z,8.15
2019-03-23T08:57:53.057Z,10.65
2019-03-23T09:00:21.986Z,8.70
2019-03-23T09:02:52.326Z,9.80
2019-03-23T09:05:21.169Z,14.43
2019-03-23T09:07:52.430Z,10.88
2019-03-23T09:10:20.552Z,8.73
2019-03-23T09:12:49.426Z,6.50
2019-03-23T09:15:19.544Z,10.78
2019-03-23T09:17:48.412Z,10.35
2019-03-23T09:20:17.265Z,11.53
2019-03-23T09:22:46.112Z,13.70
2019-03-23T09:25:14.977Z,8.18
2019-03-23T09:27:43.827Z,14.18
2019-03-23T09:30:13.478Z,12.82
2019-03-23T09:32:42.335Z,15.32
2019-03-23T09:35:11.200Z,12.15
2019-03-23T09:37:40.062Z,12.65
2019-03-23T09:40:11.026Z,9.15
2019-03-23T09:42:39.602Z,10.43
2019-03-23T09:45:09.248Z,14.98
2019-03-23T09:47:38.093Z,12.18
2019-03-23T09:50:09.634Z,11.05
2019-03-23T09:52:38.476Z,15.47
2019-03-23T09:55:08.248Z,16.00
2019-03-23T09:57:37.109Z,10.93
2019-03-23T10:00:08.660Z,16.25
2019-03-23T10:02:37.542Z,13.73
2019-03-23T10:05:07.488Z,17.62
2019-03-23T10:07:36.335Z,18.15
2019-03-23T10:10:06.399Z,18.70
2019-03-23T10:12:35.248Z,18.25
2019-03-23T10:15:08.419Z,13.88
2019-03-23T10:17:37.268Z,12.70
2019-03-23T10:20:07.344Z,20.27
2019-03-23T10:22:36.217Z,16.60
2019-03-23T10:25:06.473Z,11.33
2019-03-23T10:27:35.377Z,15.68
2019-03-23T10:30:08.800Z,13.45
2019-03-23T10:32:37.649Z,13.40
2019-03-23T10:35:08.714Z,27.10
2019-03-23T10:37:37.565Z,12.93
2019-03-23T10:40:08.275Z,13.10
2019-03-23T10:42:37.132Z,14.47
2019-03-23T10:45:08.083Z,13.78
2019-03-23T10:47:36.947Z,17.20
2019-03-23T10:50:09.508Z,18.17
2019-03-23T10:55:07.495Z,11.88
2019-03-23T10:57:36.334Z,18.30
2019-03-23T11:00:11.122Z,13.28
2019-03-23T11:02:41.122Z,16.07
2019-03-23T11:05:10.093Z,12.10
2019-03-23T11:07:38.945Z,25.23
2019-03-23T11:10:12.856Z,18.37
2019-03-23T11:12:41.720Z,13.72
2019-03-23T11:15:11.268Z,21.62
2019-03-23T11:17:40.820Z,16.12
2019-03-23T11:20:12.071Z,15.05
2019-03-23T11:22:40.947Z,10.20
2019-03-23T11:25:09.902Z,16.60
2019-03-23T11:27:38.749Z,13.98
2019-03-23T11:30:10.094Z,12.73
2019-03-23T11:32:38.948Z,15.32
2019-03-23T11:35:08.152Z,14.45
2019-03-23T11:37:37.717Z,15.75
2019-03-23T11:40:09.843Z,19.62
2019-03-23T11:42:48.757Z,21.52
2019-03-23T11:45:10.733Z,16.55
2019-03-23T11:47:39.598Z,12.53
2019-03-23T11:50:09.761Z,15.65
2019-03-23T11:52:38.614Z,20.65
2019-03-23T11:55:08.093Z,15.83
2019-03-23T11:57:36.940Z,24.00
2019-03-23T12:00:08.861Z,18.73
2019-03-23T12:02:37.768Z,15.18
2019-03-23T12:05:08.520Z,22.65
2019-03-23T12:07:37.415Z,20.43
2019-03-23T12:10:11.347Z,21.35
2019-03-23T12:12:40.301Z,16.52
2019-03-23T12:15:11.560Z,28.05
2019-03-23T12:17:40.570Z,23.73
2019-03-23T12:20:10.859Z,28.07
2019-03-23T12:22:39.768Z,30.20
2019-03-23T12:25:11.567Z,21.17
2019-03-23T12:27:41.398Z,22.15
2019-03-23T12:30:13.512Z,22.52
2019-03-23T12:32:42.384Z,24.55
2019-03-23T12:35:11.236Z,23.87
2019-03-23T12:37:40.085Z,24.37
2019-03-23T12:40:10.245Z,21.37
2019-03-23T12:42:39.293Z,20.50
2019-03-23T12:45:09.080Z,23.38
2019-03-23T12:47:37.936Z,23.55
2019-03-23T12:50:08.695Z,22.87
2019-03-23T12:52:37.561Z,25.52
2019-03-23T12:55:08.027Z,24.37
2019-03-23T12:57:36.908Z,24.70
2019-03-23T13:00:14.128Z,27.17
2019-03-23T13:02:43.010Z,28.95
2019-03-23T13:05:11.894Z,27.20
2019-03-23T13:07:40.756Z,30.45
2019-03-23T13:10:12.090Z,26.55
2019-03-23T13:12:40.943Z,30.70
2019-03-23T13:15:14.117Z,34.85
2019-03-23T13:17:42.976Z,26.25
2019-03-23T13:20:12.315Z,28.77
2019-03-23T13:22:41.321Z,26.90
2019-03-23T13:25:10.606Z,34.98
2019-03-23T13:27:39.524Z,22.87
2019-03-23T13:30:16.839Z,33.38
2019-03-23T13:32:45.727Z,27.27
2019-03-23T13:35:14.672Z,34.03
2019-03-23T13:37:43.528Z,30.90
2019-03-23T13:40:13.892Z,30.27
2019-03-23T13:42:43.151Z,26.80
2019-03-23T13:45:12.207Z,29.40
2019-03-23T13:47:41.349Z,28.45
2019-03-23T13:50:11.373Z,27.15
2019-03-23T13:52:40.260Z,28.32
2019-03-23T13:55:10.593Z,32.45
2019-03-23T13:57:39.528Z,26.62
2019-03-23T14:00:09.093Z,27.82
2019-03-23T14:02:37.972Z,26.97
2019-03-23T14:05:15.654Z,30.68
2019-03-23T14:07:37.348Z,32.00
2019-03-23T14:10:06.531Z,33.73
2019-03-23T14:12:35.384Z,25.77
2019-03-23T14:15:05.996Z,30.02
2019-03-23T14:17:35.207Z,31.17
2019-03-23T14:20:05.785Z,25.97
2019-03-23T14:22:36.336Z,29.95
2019-03-23T14:25:07.133Z,34.03
2019-03-23T14:27:35.976Z,33.13
2019-03-23T14:30:10.921Z,32.28
2019-03-23T14:32:39.781Z,34.38
2019-03-23T14:35:08.782Z,31.35
2019-03-23T14:37:37.652Z,36.90
2019-03-23T14:40:06.896Z,37.08
2019-03-23T14:42:36.255Z,32.58
2019-03-23T14:45:06.808Z,32.03
2019-03-23T14:47:35.705Z,29.40
2019-03-23T14:50:06.100Z,31.50
2019-03-23T14:52:35.015Z,26.37
2019-03-23T14:55:04.457Z,29.72
2019-03-23T14:57:33.311Z,27.52
2019-03-23T15:00:02.240Z,31.07
2019-03-23T15:02:31.100Z,33.02
2019-03-23T15:04:59.951Z,30.27
2019-03-23T15:07:28.800Z,27.22
2019-03-23T15:09:57.679Z,31.75
2019-03-23T15:12:26.564Z,31.65
2019-03-23T15:14:55.504Z,30.92
2019-03-23T15:17:24.353Z,30.08
2019-03-23T15:19:53.232Z,31.65
2019-03-23T15:22:22.180Z,30.08
2019-03-23T15:24:51.072Z,31.40
2019-03-23T15:27:19.920Z,29.55
2019-03-23T15:29:48.841Z,34.05
2019-03-23T15:32:18.662Z,30.02
2019-03-23T15:34:47.507Z,32.60
2019-03-23T15:37:16.436Z,35.10
2019-03-23T15:39:45.280Z,34.78
2019-03-23T15:42:14.133Z,37.73
2019-03-23T15:44:43.041Z,37.67
2019-03-23T15:47:11.844Z,41.08
2019-03-23T15:49:40.726Z,38.08
2019-03-23T15:52:09.591Z,37.55
2019-03-23T15:54:38.470Z,46.05
2019-03-23T15:57:07.296Z,36.00
2019-03-23T15:59:36.155Z,35.75
2019-03-23T16:02:05.065Z,33.38
2019-03-23T16:04:33.928Z,40.85
2019-03-23T16:07:02.777Z,37.85
2019-03-23T16:09:31.644Z,38.28
2019-03-23T16:12:00.513Z,44.30
2019-03-23T16:14:29.369Z,41.15
2019-03-23T16:16:58.331Z,47.78
2019-03-23T16:19:27.176Z,42.17
2019-03-23T16:21:56.041Z,45.33
2019-03-23T16:24:24.901Z,46.92
2019-03-23T16:26:53.776Z,44.60
2019-03-23T16:29:24.350Z,45.92
2019-03-23T16:31:53.249Z,38.92
2019-03-23T16:34:22.108Z,49.63
2019-03-23T16:36:50.960Z,47.80
2019-03-23T16:39:19.862Z,49.18
2019-03-23T16:41:48.727Z,45.55
2019-03-23T16:44:17.584Z,47.67
2019-03-23T16:46:46.434Z,49.65
2019-03-23T16:49:15.283Z,45.88
2019-03-23T16:51:44.170Z,45.28
2019-03-23T16:54:13.028Z,48.48
2019-03-23T16:56:41.877Z,55.28
2019-03-23T16:59:10.750Z,46.53
2019-03-23T17:01:39.608Z,50.90
2019-03-23T17:04:08.531Z,52.90
2019-03-23T17:06:46.004Z,47.93
2019-03-23T17:09:07.894Z,59.05
2019-03-23T17:11:36.744Z,60.10
2019-03-23T17:14:05.604Z,51.65
2019-03-23T17:16:34.515Z,59.53
2019-03-23T17:19:03.376Z,92.85
2019-03-23T17:21:32.212Z,55.55
2019-03-23T17:24:01.142Z,54.27
2019-03-23T17:26:29.943Z,57.78
2019-03-23T17:28:58.840Z,79.30
2019-03-23T17:31:27.685Z,58.78
2019-03-23T17:33:57.644Z,53.38
2019-03-23T17:36:26.500Z,56.73
2019-03-23T17:38:58.635Z,55.12
2019-03-23T17:41:27.538Z,53.38
2019-03-23T17:43:56.397Z,53.20
2019-03-23T17:46:25.337Z,51.83
2019-03-23T17:48:54.158Z,53.60
2019-03-23T17:51:23.007Z,64.05
2019-03-23T17:53:58.532Z,55.48
2019-03-23T17:56:22.402Z,50.85
2019-03-23T17:58:51.250Z,56.88
2019-03-23T18:01:20.108Z,50.38
2019-03-23T18:03:48.994Z,59.53
2019-03-23T18:06:17.941Z,60.70
2019-03-23T18:08:46.800Z,55.55
2019-03-23T18:11:15.678Z,62.53
2019-03-23T18:13:44.527Z,64.20
2019-03-23T18:16:13.402Z,66.40
2019-03-23T18:18:42.999Z,68.22
2019-03-23T18:21:11.853Z,62.88
2019-03-23T18:23:41.002Z,57.35
2019-03-23T18:26:09.845Z,59.65
2019-03-23T18:28:38.692Z,58.90
2019-03-23T18:31:07.629Z,53.78
2019-03-23T18:33:36.481Z,52.88
2019-03-23T18:36:06.289Z,61.33
2019-03-23T18:38:35.165Z,59.45
2019-03-23T18:41:04.036Z,51.45
2019-03-23T18:43:32.941Z,56.75
2019-03-23T18:46:01.824Z,52.23
2019-03-23T18:48:33.688Z,49.75
2019-03-23T18:51:02.576Z,57.10
2019-03-23T18:53:31.417Z,50.35
2019-03-23T18:56:00.323Z,52.58
2019-03-23T18:58:29.307Z,54.83
2019-03-23T19:00:58.189Z,51.73
2019-03-23T19:03:27.042Z,45.55
2019-03-23T19:05:55.870Z,50.95
2019-03-23T19:08:24.806Z,49.88
2019-03-23T19:10:53.655Z,46.02
2019-03-23T19:13:22.507Z,47.13
2019-03-23T19:15:53.923Z,45.85
2019-03-23T19:18:22.767Z,45.80
2019-03-23T19:20:51.801Z,47.05
2019-03-23T19:23:20.608Z,43.52
2019-03-23T19:25:49.526Z,42.13
2019-03-23T19:28:18.396Z,46.35
2019-03-23T19:30:47.251Z,49.55
2019-03-23T19:33:16.127Z,46.85
2019-03-23T19:35:44.970Z,40.48
2019-03-23T19:38:13.818Z,47.75
2019-03-23T19:40:42.680Z,45.65
2019-03-23T19:43:11.540Z,61.08
2019-03-23T19:45:40.417Z,53.40
2019-03-23T19:48:09.277Z,49.40
2019-03-23T19:50:38.142Z,38.48
2019-03-23T19:53:07.029Z,44.08
2019-03-23T19:55:35.873Z,44.42
2019-03-23T19:58:04.872Z,39.60
2019-03-23T20:00:33.872Z,43.55
2019-03-23T20:03:02.724Z,43.13
2019-03-23T20:05:31.573Z,44.23
2019-03-23T20:08:00.434Z,46.60
2019-03-23T20:10:29.492Z,45.75
2019-03-23T20:12:58.375Z,45.65
2019-03-23T20:15:27.310Z,43.38
2019-03-23T20:17:56.153Z,45.45
2019-03-23T20:20:25.007Z,49.90
2019-03-23T20:22:53.897Z,52.62
2019-03-23T20:25:22.796Z,56.02
2019-03-23T20:27:55.375Z,50.23
2019-03-23T20:30:24.214Z,59.50
2019-03-23T20:32:53.059Z,59.30
2019-03-23T20:35:21.973Z,52.35
2019-03-23T20:37:51.929Z,61.98
2019-03-23T20:40:29.331Z,51.40
2019-03-23T20:42:58.228Z,59.77
2019-03-23T20:45:28.788Z,55.10
2019-03-23T20:47:58.067Z,57.58
2019-03-23T20:50:26.941Z,52.98
2019-03-23T20:52:55.816Z,61.05
2019-03-23T20:55:29.022Z,52.00
2019-03-23T20:57:57.878Z,48.13
2019-03-23T21:00:26.860Z,48.58
2019-03-23T21:02:55.850Z,52.00
2019-03-23T21:05:33.160Z,54.40
2019-03-23T21:07:55.201Z,53.02
2019-03-23T21:10:24.040Z,63.52
2019-03-23T21:12:52.898Z,59.30
2019-03-23T21:15:21.756Z,70.30
2019-03-23T21:17:51.602Z,59.38
2019-03-23T21:20:20.768Z,69.45
2019-03-23T21:22:49.620Z,74.97
2019-03-23T21:25:18.465Z,83.00
2019-03-23T21:27:47.317Z,71.53
2019-03-23T21:30:17.093Z,73.12
2019-03-23T21:32:45.940Z,72.55
2019-03-23T21:35:15.929Z,67.15
2019-03-23T21:37:45.053Z,62.00
2019-03-23T21:40:14.936Z,68.37
2019-03-23T21:42:45.387Z,61.20
2019-03-23T21:45:14.540Z,52.10
2019-03-23T21:47:43.393Z,47.13
2019-03-23T21:50:17.155Z,46.45
2019-03-23T21:52:48.094Z,46.90
2019-03-23T21:55:18.465Z,49.85
2019-03-23T21:57:47.398Z,52.25
2019-03-23T22:00:30.581Z,49.63
2019-03-23T22:02:59.454Z,42.78
2019-03-23T22:05:28.307Z,51.70
2019-03-23T22:07:57.156Z,46.55
2019-03-23T22:10:26.018Z,50.50
2019-03-23T22:12:54.896Z,48.68
2019-03-23T22:15:23.747Z,43.98
2019-03-23T22:17:54.328Z,45.45
2019-03-23T22:20:23.607Z,53.05
2019-03-23T22:22:52.511Z,50.60
2019-03-23T22:25:21.386Z,44.58
2019-03-23T22:27:50.231Z,41.00
2019-03-23T22:30:20.761Z,43.85
2019-03-23T22:32:49.610Z,44.93
2019-03-23T22:35:18.461Z,37.98
2019-03-23T22:37:47.354Z,42.53
2019-03-23T22:40:17.281Z,38.25
2019-03-23T22:42:46.125Z,41.42
2019-03-23T22:45:15.084Z,42.00
2019-03-23T22:47:43.944Z,37.80
2019-03-23T22:50:12.873Z,46.42
2019-03-23T22:52:41.728Z,45.88
2019-03-23T22:55:11.472Z,43.25
2019-03-23T22:57:40.324Z,44.55
2019-03-23T23:00:13.706Z,40.73
2019-03-23T23:02:42.577Z,39.65
2019-03-23T23:05:11.521Z,38.25
2019-03-23T23:07:40.368Z,35.65
2019-03-23T23:10:09.626Z,40.25
2019-03-23T23:12:38.480Z,40.10
2019-03-23T23:15:09.164Z,33.20
2019-03-23T23:17:38.020Z,29.65
2019-03-23T23:20:08.732Z,35.03
2019-03-23T23:22:37.584Z,33.80
2019-03-23T23:25:07.851Z,34.50
2019-03-23T23:27:37.155Z,26.27
2019-03-23T23:30:07.912Z,34.35
2019-03-23T23:32:36.962Z,31.25
2019-03-23T23:35:08.284Z,27.82
2019-03-23T23:37:37.162Z,31.30
2019-03-23T23:40:07.248Z,27.65
2019-03-23T23:42:37.038Z,26.17
2019-03-23T23:45:15.306Z,23.57
2019-03-23T23:47:41.278Z,29.35
2019-03-23T23:50:10.139Z,22.20
2019-03-23T23:52:39.060Z,23.95
2019-03-23T23:55:08.596Z,23.85
2019-03-23T23:57:38.486Z,23.67
